Time;durP1;ratioP1;P1;durP2;ratioP2;P2;SDS_P1;SDS_P2;PMS_P1;PMS_P2;Temp;Humidity;BMP_temperature;BMP_pressure;BME280_temperature;BME280_humidity;BME280_pressure;Samples;Min_cycle;Max_cycle;Signal;HPM_P1;HPM_P2
2024/01/05 00:00:50;;;;;;;29.45;12.38;;;2.40;99.90;;;;;;5016545;28;20046;-82
2024/01/05 00:03:44;;;;;;;26.67;11.75;;;2.40;99.90;;;;;;5019504;28;20060;-77
2024/01/05 00:06:37;;;;;;;28.17;11.50;;;2.40;99.90;;;;;;5044157;28;20469;-79
2024/01/05 00:09:33;;;;;;;27.67;11.80;;;2.40;99.90;;;;;;5051595;28;20425;-79
2024/01/05 00:12:31;;;;;;;30.42;11.95;;;2.30;99.90;;;;;;5043291;28;20042;-79
2024/01/05 00:15:34;;;;;;;27.88;11.65;;;2.30;99.90;;;;;;5015406;28;20042;-79
2024/01/05 00:18:32;;;;;;;38.58;12.63;;;2.20;99.90;;;;;;5007609;28;20467;-77
2024/01/05 00:21:42;;;;;;;29.52;12.25;;;2.40;99.90;;;;;;5018382;28;20073;-80
2024/01/05 00:24:38;;;;;;;29.58;12.23;;;2.30;99.90;;;;;;5024139;28;20044;-79
2024/01/05 00:27:47;;;;;;;25.90;10.30;;;2.30;99.90;;;;;;5038010;28;20056;-77
2024/01/05 00:30:42;;;;;;;22.23;9.50;;;2.30;99.90;;;;;;5030896;28;20045;-81
2024/01/05 00:33:49;;;;;;;24.48;6.93;;;2.40;99.90;;;;;;5039213;28;20045;-79
2024/01/05 00:36:41;;;;;;;17.42;6.07;;;2.40;99.90;;;;;;5045763;28;20045;-79
2024/01/05 00:39:29;;;;;;;15.65;5.03;;;2.60;99.90;;;;;;5035716;28;20037;-78
2024/01/05 00:42:24;;;;;;;16.40;4.97;;;2.70;99.90;;;;;;5026086;28;20517;-79
2024/01/05 00:45:16;;;;;;;14.85;4.60;;;2.80;99.90;;;;;;5030973;28;20053;-80
2024/01/05 00:48:09;;;;;;;12.02;5.43;;;2.90;99.90;;;;;;5033226;28;20140;-79
2024/01/05 00:51:00;;;;;;;21.20;5.90;;;3.00;99.90;;;;;;5026642;28;20472;-79
2024/01/05 00:54:11;;;;;;;21.75;7.10;;;3.10;99.90;;;;;;5021242;28;20056;-80
2024/01/05 00:57:03;;;;;;;20.52;6.95;;;3.10;99.90;;;;;;5025298;28;20053;-80
2024/01/05 01:00:01;;;;;;;19.17;6.07;;;3.00;99.90;;;;;;5019957;28;20049;-78
2024/01/05 01:03:00;;;;;;;19.13;5.47;;;3.00;99.90;;;;;;5018826;28;20170;-79
2024/01/05 01:05:50;;;;;;;22.83;5.40;;;3.20;99.90;;;;;;5033633;28;20057;-79
2024/01/05 01:08:50;;;;;;;23.63;4.18;;;3.40;99.90;;;;;;5018493;28;20060;-81
2024/01/05 01:11:48;;;;;;;20.88;3.70;;;3.60;99.90;;;;;;5031360;28;20073;-80
2024/01/05 01:14:49;;;;;;;10.95;3.55;;;3.70;99.90;;;;;;5027588;28;20060;-80
2024/01/05 01:17:50;;;;;;;15.82;3.78;;;3.80;99.90;;;;;;5022029;28;20075;-82
2024/01/05 01:20:46;;;;;;;13.00;3.65;;;3.80;99.90;;;;;;5030193;28;20052;-78
2024/01/05 01:23:48;;;;;;;14.98;3.80;;;3.70;99.90;;;;;;5024330;28;20071;-81
2024/01/05 01:26:38;;;;;;;17.05;3.78;;;3.80;99.90;;;;;;5024404;28;20045;-80
2024/01/05 01:29:27;;;;;;;16.73;4.25;;;3.90;99.90;;;;;;5020211;28;20049;-80
2024/01/05 01:32:19;;;;;;;16.58;4.28;;;3.90;99.90;;;;;;5006725;28;20048;-79
2024/01/05 01:35:12;;;;;;;12.95;4.38;;;3.80;99.90;;;;;;5028763;28;20048;-80
2024/01/05 01:38:06;;;;;;;14.30;3.72;;;3.80;99.90;;;;;;5025098;28;20037;-81
2024/01/05 01:41:00;;;;;;;11.45;3.92;;;3.70;99.90;;;;;;5025838;28;20049;-80
2024/01/05 01:43:48;;;;;;;12.98;3.30;;;3.70;99.90;;;;;;5024714;28;20037;-80
2024/01/05 01:46:59;;;;;;;11.40;3.67;;;3.80;99.80;;;;;;5022889;28;20054;-80
2024/01/05 01:49:50;;;;;;;10.38;3.03;;;4.00;51.20;;;;;;5031777;28;20417;-81
2024/01/05 01:52:52;;;;;;;15.05;3.20;;;4.10;1.00;;;;;;5028813;28;20053;-81
2024/01/05 01:55:48;;;;;;;11.35;3.50;;;4.20;1.00;;;;;;5023219;28;20042;-81
2024/01/05 01:58:51;;;;;;;9.38;2.33;;;4.30;1.00;;;;;;5019699;28;20463;-81
2024/01/05 02:01:42;;;;;;;9.30;2.75;;;4.50;99.90;;;;;;5013126;28;20045;-80
2024/01/05 02:04:38;;;;;;;9.50;2.95;;;4.60;99.90;;;;;;5022325;28;20510;-79
2024/01/05 02:07:44;;;;;;;10.73;2.50;;;4.60;1.00;;;;;;5007940;28;20120;-80
2024/01/05 02:10:38;;;;;;;8.57;2.40;;;4.70;99.90;;;;;;5009259;28;20109;-82
2024/01/05 02:13:53;;;;;;;11.13;2.72;;;4.60;99.90;;;;;;5022690;28;20044;-79
2024/01/05 02:16:59;;;;;;;;;;;4.60;93.70;;;;;;5013970;28;20044;-81
2024/01/05 02:20:13;;;;;;;;;;;;;;;;;;;;;
2024/01/05 02:23:29;;;;;;;10.32;2.67;;;4.40;1.00;;;;;;5028260;28;20046;-78
2024/01/05 02:26:30;;;;;;;12.75;2.42;;;4.40;24.50;;;;;;5021144;28;20140;-81
2024/01/05 02:29:21;;;;;;;5.43;2.75;;;4.20;99.90;;;;;;5020986;28;20081;-79
2024/01/05 02:32:30;;;;;;;12.18;2.85;;;4.10;99.90;;;;;;5027999;28;20041;-78
2024/01/05 02:35:24;;;;;;;12.30;2.50;;;4.10;99.90;;;;;;5023544;28;20147;-80
2024/01/05 02:38:17;;;;;;;14.88;3.30;;;4.00;99.90;;;;;;5030164;28;20053;-79
2024/01/05 02:41:12;;;;;;;13.85;2.95;;;4.00;1.00;;;;;;5022985;28;20107;-80
2024/01/05 02:44:13;;;;;;;10.00;2.75;;;4.10;1.00;;;;;;5008268;28;20392;-80
2024/01/05 02:47:06;;;;;;;8.23;2.45;;;4.20;1.00;;;;;;5021759;28;20509;-81
2024/01/05 02:49:59;;;;;;;10.85;2.95;;;4.20;1.00;;;;;;5024279;28;20045;-79
2024/01/05 02:53:02;;;;;;;10.88;2.95;;;4.30;99.90;;;;;;5024571;28;20045;-80
2024/01/05 02:55:55;;;;;;;5.25;2.28;;;4.30;99.90;;;;;;5025321;28;20061;-79
2024/01/05 02:58:53;;;;;;;13.85;2.13;;;4.30;99.90;;;;;;5014490;28;20712;-78
2024/01/05 03:01:45;;;;;;;7.30;2.65;;;4.30;99.90;;;;;;5039359;28;20150;-78
2024/01/05 03:04:46;;;;;;;12.43;2.72;;;4.40;99.90;;;;;;5017536;28;20723;-77
2024/01/05 03:07:49;;;;;;;9.15;2.33;;;4.50;57.10;;;;;;5029195;28;20042;-80
2024/01/05 03:10:43;;;;;;;7.28;2.60;;;4.50;1.00;;;;;;5023615;28;20050;-80
2024/01/05 03:13:55;;;;;;;9.18;2.58;;;4.60;99.90;;;;;;5030663;28;20113;-76
2024/01/05 03:16:51;;;;;;;12.07;2.80;;;4.60;99.90;;;;;;5017465;28;20053;-79
2024/01/05 03:20:01;;;;;;;11.25;2.33;;;4.60;99.90;;;;;;5009459;28;20065;-80
2024/01/05 03:22:58;;;;;;;6.85;2.22;;;4.60;92.20;;;;;;5005225;28;20053;-80
2024/01/05 03:25:47;;;;;;;6.03;2.22;;;4.60;1.00;;;;;;5011162;28;20117;-79
2024/01/05 03:28:47;;;;;;;11.30;2.80;;;4.60;1.00;;;;;;5022717;28;20112;-80
2024/01/05 03:31:38;;;;;;;10.85;2.03;;;4.60;1.00;;;;;;5022323;28;20042;-79
2024/01/05 03:34:31;;;;;;;7.40;2.20;;;4.70;99.90;;;;;;5033259;28;20053;-81
2024/01/05 03:37:24;;;;;;;5.75;2.08;;;4.70;99.90;;;;;;5022496;28;20087;-81
2024/01/05 03:40:25;;;;;;;12.03;2.30;;;4.80;99.90;;;;;;5030958;28;20037;-79
2024/01/05 03:43:18;;;;;;;9.68;2.00;;;4.80;1.00;;;;;;5033054;28;20265;-80
2024/01/05 03:46:15;;;;;;;7.97;1.98;;;4.90;99.90;;;;;;5042926;28;20048;-81
2024/01/05 03:49:02;;;;;;;2.83;1.90;;;5.10;1.00;;;;;;5046325;28;20056;-80
2024/01/05 03:52:06;;;;;;;11.52;2.40;;;5.10;99.90;;;;;;5040024;28;20038;-79
2024/01/05 03:55:01;;;;;;;5.75;1.90;;;5.20;99.90;;;;;;5041833;28;20037;-79
2024/01/05 03:57:50;;;;;;;8.20;2.25;;;5.20;1.00;;;;;;5033847;28;20021;-77
2024/01/05 04:00:46;;;;;;;5.07;2.20;;;5.30;1.00;;;;;;5036908;28;20052;-82
2024/01/05 04:03:35;;;;;;;6.65;2.17;;;5.30;99.90;;;;;;5025050;28;20052;-79
2024/01/05 04:06:33;;;;;;;10.55;2.53;;;5.30;99.90;;;;;;5035584;28;20051;-79
2024/01/05 04:09:45;;;;;;;7.55;2.10;;;5.30;99.90;;;;;;5042027;28;20040;-79
2024/01/05 04:12:50;;;;;;;3.08;1.88;;;5.30;99.90;;;;;;5041209;28;20097;-80
2024/01/05 04:15:38;;;;;;;4.50;1.88;;;5.40;1.00;;;;;;5052681;28;20053;-80
2024/01/05 04:18:30;;;;;;;6.55;1.90;;;5.40;1.00;;;;;;5050260;28;20055;-80
2024/01/05 04:21:25;;;;;;;9.43;2.20;;;5.40;1.00;;;;;;5029033;28;20049;-80
2024/01/05 04:24:22;;;;;;;6.53;1.73;;;5.40;99.90;;;;;;5016746;28;20105;-82
2024/01/05 04:27:31;;;;;;;6.03;2.08;;;5.40;99.90;;;;;;5027115;28;20059;-82
2024/01/05 04:30:45;;;;;;;4.53;2.20;;;5.40;99.90;;;;;;5034943;28;20056;-84
2024/01/05 04:33:38;;;;;;;4.28;2.03;;;5.40;99.90;;;;;;5031827;28;20410;-80
2024/01/05 04:37:20;;;;;;;5.15;2.33;;;5.40;80.00;;;;;;5019706;28;20041;-79
2024/01/05 04:40:33;;;;;;;8.70;1.90;;;5.50;1.00;;;;;;5030908;28;20061;-82
2024/01/05 04:43:34;;;;;;;4.65;1.75;;;5.60;1.00;;;;;;5046826;28;20037;-79
2024/01/05 04:46:33;;;;;;;4.65;1.90;;;5.60;99.90;;;;;;5013745;28;20453;-79
2024/01/05 04:49:36;;;;;;;5.22;2.05;;;5.70;99.90;;;;;;5021101;28;20099;-79
2024/01/05 04:52:35;;;;;;;7.47;1.83;;;5.70;99.90;;;;;;5031953;28;20057;-78
2024/01/05 04:55:34;;;;;;;5.15;1.85;;;5.70;99.90;;;;;;5016211;28;20052;-81
2024/01/05 04:58:39;;;;;;;6.32;1.83;;;5.70;99.90;;;;;;5028567;28;20053;-80
2024/01/05 05:01:41;;;;;;;9.55;2.13;;;5.70;99.90;;;;;;5011458;28;20037;-81
2024/01/05 05:04:42;;;;;;;4.63;1.90;;;5.60;88.70;;;;;;5021522;28;20033;-81
2024/01/05 05:07:55;;;;;;;8.95;2.00;;;5.60;49.20;;;;;;5010454;28;20072;-79
2024/01/05 05:10:54;;;;;;;6.32;1.98;;;5.60;56.60;;;;;;5024021;28;20056;-80
2024/01/05 05:13:55;;;;;;;5.50;1.90;;;5.50;79.50;;;;;;5025381;28;20069;-80
2024/01/05 05:17:03;;;;;;;6.38;2.05;;;5.40;99.90;;;;;;5005575;28;20167;-80
2024/01/05 05:20:07;;;;;;;6.55;1.80;;;5.30;99.90;;;;;;5023707;28;20683;-80
2024/01/05 05:23:01;;;;;;;6.50;2.22;;;5.30;99.90;;;;;;5034495;28;20251;-82
2024/01/05 05:25:59;;;;;;;4.47;1.95;;;5.20;99.90;;;;;;5021352;28;20058;-80
2024/01/05 05:29:08;;;;;;;8.60;2.40;;;5.20;99.90;;;;;;5024329;28;20432;-80
2024/01/05 05:32:14;;;;;;;5.22;1.88;;;5.20;99.90;;;;;;5022491;28;20392;-80
2024/01/05 05:35:19;;;;;;;5.38;2.20;;;5.10;99.90;;;;;;5012776;28;20069;-81
2024/01/05 05:38:18;;;;;;;5.93;1.80;;;5.10;99.90;;;;;;5035822;28;20113;-77
2024/01/05 05:41:16;;;;;;;2.45;1.73;;;5.10;99.90;;;;;;5024828;28;20481;-81
2024/01/05 05:44:12;;;;;;;8.35;2.25;;;5.10;99.90;;;;;;5039327;28;20045;-78
2024/01/05 05:47:00;;;;;;;7.85;1.77;;;5.10;99.90;;;;;;5016883;28;20132;-79
2024/01/05 05:49:56;;;;;;;4.30;1.85;;;5.00;99.90;;;;;;5035894;28;20029;-76
2024/01/05 05:52:51;;;;;;;3.33;2.00;;;5.00;99.90;;;;;;5048170;28;20077;-77
2024/01/05 05:55:41;;;;;;;7.45;1.90;;;5.00;99.90;;;;;;5005364;28;20049;-78
2024/01/05 05:58:28;;;;;;;5.18;2.10;;;5.00;99.90;;;;;;5019426;28;20124;-78
2024/01/05 06:01:23;;;;;;;10.68;2.33;;;5.00;99.90;;;;;;5008015;28;20618;-78
2024/01/05 06:04:13;;;;;;;5.72;2.13;;;5.00;99.90;;;;;;5020279;28;20056;-79
2024/01/05 06:07:01;;;;;;;8.45;2.03;;;5.00;99.90;;;;;;5022638;28;20501;-79
2024/01/05 06:09:49;;;;;;;5.00;2.22;;;5.00;99.90;;;;;;5008319;28;20598;-78
2024/01/05 06:12:36;;;;;;;8.95;2.08;;;4.90;99.90;;;;;;5031339;28;20580;-78
2024/01/05 06:15:27;;;;;;;5.70;2.20;;;4.90;1.00;;;;;;5031694;28;20038;-79
2024/01/05 06:18:14;;;;;;;6.90;2.15;;;4.80;1.00;;;;;;5020266;28;20076;-78
2024/01/05 06:21:02;;;;;;;7.03;2.20;;;4.80;1.00;;;;;;5034375;28;20391;-76
2024/01/05 06:23:53;;;;;;;3.13;1.88;;;4.80;1.00;;;;;;5014703;28;20052;-77
2024/01/05 06:26:46;;;;;;;6.65;2.10;;;4.80;1.00;;;;;;5024406;28;20065;-78
2024/01/05 06:29:33;;;;;;;6.55;2.20;;;4.80;1.00;;;;;;5026375;28;20073;-80
2024/01/05 06:32:21;;;;;;;6.60;2.10;;;4.80;34.00;;;;;;5023895;28;20050;-80
2024/01/05 06:35:11;;;;;;;8.18;1.85;;;4.80;89.00;;;;;;5023006;28;20049;-81
2024/01/05 06:37:58;;;;;;;8.10;2.15;;;4.80;99.90;;;;;;5023037;28;20052;-80
2024/01/05 06:40:45;;;;;;;2.58;1.88;;;4.80;99.90;;;;;;5012605;28;20042;-79
2024/01/05 06:43:32;;;;;;;8.05;2.58;;;4.80;90.40;;;;;;5027596;28;20041;-75
2024/01/05 06:46:22;;;;;;;6.70;2.05;;;4.80;99.90;;;;;;5019934;28;20056;-78
2024/01/05 06:49:09;;;;;;;8.40;2.45;;;4.80;99.90;;;;;;5020121;28;20049;-82
2024/01/05 06:51:59;;;;;;;9.05;2.60;;;4.90;58.20;;;;;;5024911;28;20049;-79
2024/01/05 06:54:57;;;;;;;4.45;2.13;;;5.00;6.80;;;;;;5024862;28;20052;-78
2024/01/05 06:58:03;;;;;;;8.88;2.25;;;5.00;1.00;;;;;;5021541;28;20443;-79
2024/01/05 07:00:50;;;;;;;7.05;2.22;;;5.00;37.80;;;;;;5027208;28;20469;-77
2024/01/05 07:03:41;;;;;;;7.60;2.20;;;5.00;13.40;;;;;;5036524;28;20180;-79
2024/01/05 07:06:32;;;;;;;5.53;2.15;;;5.10;1.00;;;;;;5023520;28;20041;-78
2024/01/05 07:09:23;;;;;;;6.68;2.25;;;5.10;1.00;;;;;;5017786;28;20040;-77
2024/01/05 07:12:11;;;;;;;7.07;2.20;;;5.00;1.00;;;;;;5023413;28;20056;-79
2024/01/05 07:14:58;;;;;;;9.93;2.40;;;5.00;17.10;;;;;;5036134;28;20045;-79
2024/01/05 07:17:48;;;;;;;5.35;2.17;;;5.00;47.60;;;;;;5025447;28;20055;-77
2024/01/05 07:20:41;;;;;;;4.68;2.25;;;5.00;28.40;;;;;;5025234;28;20042;-80
2024/01/05 07:23:40;;;;;;;6.13;2.45;;;4.90;81.00;;;;;;5026518;28;20052;-77
2024/01/05 07:26:35;;;;;;;6.13;2.45;;;4.90;94.40;;;;;;5021353;28;20060;-79
2024/01/05 07:29:27;;;;;;;8.43;2.27;;;4.70;99.90;;;;;;5028843;28;20033;-79
2024/01/05 07:32:25;;;;;;;5.10;2.15;;;4.50;99.90;;;;;;5011058;28;20645;-80
2024/01/05 07:35:18;;;;;;;6.22;2.25;;;4.40;1.00;;;;;;5020459;28;20126;-79
2024/01/05 07:38:13;;;;;;;9.82;2.45;;;4.60;1.00;;;;;;5008870;28;20045;-78
2024/01/05 07:41:03;;;;;;;3.90;2.08;;;4.60;1.00;;;;;;5021138;28;20050;-78
2024/01/05 07:43:51;;;;;;;5.43;2.22;;;4.70;1.00;;;;;;5028211;28;20453;-78
2024/01/05 07:47:25;;;;;;;6.25;2.22;;;4.80;1.00;;;;;;5007494;28;20288;-81
2024/01/05 07:50:18;;;;;;;5.70;2.00;;;4.90;99.90;;;;;;5023464;28;20870;-80
2024/01/05 07:53:05;;;;;;;8.82;2.42;;;5.10;99.90;;;;;;5024085;28;20141;-79
2024/01/05 07:55:54;;;;;;;8.70;2.00;;;5.10;99.90;;;;;;5025155;28;20167;-77
2024/01/05 07:58:41;;;;;;;9.00;2.72;;;5.20;99.90;;;;;;5033689;28;20045;-78
2024/01/05 08:01:32;;;;;;;5.25;2.15;;;5.30;99.90;;;;;;5019321;28;20042;-77
2024/01/05 08:04:19;;;;;;;7.35;2.10;;;5.40;66.50;;;;;;5019074;28;20277;-78
2024/01/05 08:07:08;;;;;;;7.47;2.33;;;5.50;1.00;;;;;;5021727;28;21025;-77
2024/01/05 08:09:56;;;;;;;8.27;2.05;;;5.60;1.00;;;;;;5027582;28;20113;-78
2024/01/05 08:12:54;;;;;;;7.35;2.53;;;5.60;1.00;;;;;;5021430;28;20067;-75
2024/01/05 08:15:41;;;;;;;8.40;2.15;;;5.60;1.00;;;;;;5022011;28;20105;-79
2024/01/05 08:18:30;;;;;;;3.63;2.15;;;5.70;1.00;;;;;;5022308;28;20045;-78
2024/01/05 08:21:19;;;;;;;6.50;2.40;;;5.70;99.90;;;;;;5044291;28;20109;-77
2024/01/05 08:24:06;;;;;;;6.38;2.17;;;5.70;99.90;;;;;;5019383;28;20045;-77
2024/01/05 08:27:03;;;;;;;7.47;2.33;;;5.70;99.90;;;;;;5037420;28;20115;-77
2024/01/05 08:30:02;;;;;;;7.45;2.38;;;5.70;99.90;;;;;;5048379;28;20645;-79
2024/01/05 08:32:57;;;;;;;5.97;2.17;;;5.70;99.90;;;;;;5036577;28;20295;-76
2024/01/05 08:36:06;;;;;;;6.63;2.65;;;5.70;99.90;;;;;;5039263;28;20053;-78
2024/01/05 08:39:23;;;;;;;7.63;2.75;;;5.70;99.90;;;;;;5022267;28;20045;-79
2024/01/05 08:42:19;;;;;;;8.50;2.88;;;5.70;99.90;;;;;;5033058;28;20076;-78
2024/01/05 08:45:09;;;;;;;7.97;2.85;;;5.60;99.90;;;;;;5019360;28;20060;-78
2024/01/05 08:48:51;;;;;;;8.40;2.90;;;5.70;99.90;;;;;;5029964;28;20029;-80
2024/01/05 08:52:15;;;;;;;10.77;3.13;;;5.70;99.90;;;;;;4971326;28;20052;-78
2024/01/05 08:55:28;;;;;;;8.67;4.30;;;5.70;99.90;;;;;;5013036;28;20045;-78
2024/01/05 08:58:18;;;;;;;11.65;2.50;;;5.70;99.90;;;;;;5021872;28;20351;-78
2024/01/05 09:01:06;;;;;;;5.25;2.40;;;5.70;99.90;;;;;;5010700;28;20059;-80
2024/01/05 09:03:57;;;;;;;9.10;2.55;;;5.70;99.90;;;;;;5021274;28;20038;-78
2024/01/05 09:06:45;;;;;;;7.70;2.50;;;5.70;99.90;;;;;;5024053;28;20041;-78
2024/01/05 09:09:33;;;;;;;7.05;2.53;;;5.80;99.90;;;;;;5032542;28;20053;-77
2024/01/05 09:12:20;;;;;;;5.85;2.80;;;5.90;99.90;;;;;;5032978;28;20076;-79
2024/01/05 09:15:16;;;;;;;8.77;2.67;;;5.90;99.90;;;;;;5024716;28;20111;-81
2024/01/05 09:18:05;;;;;;;3.88;2.25;;;6.00;99.90;;;;;;5023125;28;20143;-77
2024/01/05 09:20:57;;;;;;;8.57;2.60;;;6.00;99.90;;;;;;5021712;28;20427;-78
2024/01/05 09:23:44;;;;;;;9.32;3.08;;;6.00;99.90;;;;;;5026476;28;20052;-78
2024/01/05 09:26:43;;;;;;;8.43;2.72;;;6.10;99.90;;;;;;5020886;28;20065;-79
2024/01/05 09:29:36;;;;;;;9.52;3.25;;;6.10;99.90;;;;;;5033175;28;20041;-76
2024/01/05 09:32:24;;;;;;;9.53;2.87;;;6.20;99.90;;;;;;5026066;28;20045;-79
2024/01/05 09:35:11;;;;;;;8.25;2.97;;;6.20;99.90;;;;;;5040572;28;20069;-76
2024/01/05 09:38:00;;;;;;;11.18;2.97;;;6.30;99.90;;;;;;5029498;28;20053;-77
2024/01/05 09:40:55;;;;;;;9.65;3.60;;;6.40;99.90;;;;;;5022707;28;20128;-79
2024/01/05 09:43:47;;;;;;;7.82;2.80;;;6.60;99.90;;;;;;5023506;28;20521;-79
2024/01/05 09:46:38;;;;;;;5.05;2.58;;;6.80;99.90;;;;;;5017521;28;20555;-79
2024/01/05 09:49:30;;;;;;;7.65;2.30;;;7.10;58.70;;;;;;5024580;28;20108;-79
2024/01/05 09:52:20;;;;;;;6.50;2.70;;;7.20;1.00;;;;;;5020921;28;20038;-79
2024/01/05 09:55:08;;;;;;;6.13;2.72;;;7.30;1.00;;;;;;5002735;28;20481;-76
2024/01/05 09:57:55;;;;;;;7.13;2.60;;;7.30;1.00;;;;;;5018819;28;20049;-76
2024/01/05 10:00:50;;;;;;;8.55;2.42;;;7.10;1.00;;;;;;5025380;28;20045;-78
2024/01/05 10:03:38;;;;;;;10.15;2.30;;;6.90;1.00;;;;;;5029268;28;20054;-79
2024/01/05 10:06:26;;;;;;;7.30;2.38;;;6.70;1.00;;;;;;5007020;28;20160;-77
2024/01/05 10:09:14;;;;;;;9.40;2.92;;;6.60;1.00;;;;;;5023627;28;20098;-77
2024/01/05 10:12:12;;;;;;;6.13;2.45;;;6.70;1.00;;;;;;5028938;28;20049;-77
2024/01/05 10:15:06;;;;;;;10.18;3.65;;;6.70;1.00;;;;;;5027171;28;20052;-77
2024/01/05 10:17:54;;;;;;;9.38;3.50;;;6.70;1.00;;;;;;5007362;28;20048;-79
2024/01/05 10:20:42;;;;;;;12.98;3.20;;;6.70;12.30;;;;;;5014942;28;20518;-77
2024/01/05 10:23:30;;;;;;;12.07;3.70;;;6.70;36.60;;;;;;5012746;28;20526;-76
2024/01/05 10:26:19;;;;;;;10.45;3.30;;;6.70;16.90;;;;;;5018404;28;20125;-78
2024/01/05 10:29:16;;;;;;;9.10;3.28;;;6.80;3.70;;;;;;5018823;28;20061;-76
2024/01/05 10:32:17;;;;;;;9.15;3.15;;;6.90;13.80;;;;;;5016045;28;20068;-77
2024/01/05 10:35:08;;;;;;;8.20;2.90;;;7.20;1.00;;;;;;5018730;28;20174;-77
2024/01/05 10:38:05;;;;;;;4.72;2.90;;;7.20;1.00;;;;;;5003927;28;20395;-78
2024/01/05 10:41:05;;;;;;;8.80;3.33;;;7.30;1.00;;;;;;5022038;28;20048;-77
2024/01/05 10:43:53;;;;;;;7.22;2.80;;;7.40;1.00;;;;;;5016937;28;20159;-78
2024/01/05 10:46:43;;;;;;;7.90;3.10;;;7.40;1.00;;;;;;5007019;28;20045;-78
2024/01/05 10:49:31;;;;;;;8.43;3.30;;;7.50;1.00;;;;;;5005925;28;20114;-78
2024/01/05 10:52:31;;;;;;;7.05;2.95;;;7.60;1.00;;;;;;5026233;28;20482;-78
2024/01/05 10:55:22;;;;;;;7.90;3.15;;;7.70;1.00;;;;;;5041695;28;20072;-76
2024/01/05 10:58:12;;;;;;;7.93;3.33;;;7.70;1.00;;;;;;5026912;28;20042;-79
2024/01/05 11:01:12;;;;;;;7.35;3.08;;;7.70;1.00;;;;;;5025271;28;20046;-78
2024/01/05 11:04:04;;;;;;;15.07;3.28;;;7.70;1.00;;;;;;5020691;28;20033;-78
2024/01/05 11:07:03;;;;;;;9.32;2.78;;;7.60;1.00;;;;;;5043086;28;20069;-79
2024/01/05 11:10:16;;;;;;;7.85;2.80;;;7.50;1.00;;;;;;5019022;28;20041;-79
2024/01/05 11:13:32;;;;;;;7.60;2.65;;;7.50;1.00;;;;;;5024224;28;20428;-78
2024/01/05 11:16:54;;;;;;;9.75;2.45;;;7.50;1.00;;;;;;5028057;28;20571;-79
2024/01/05 11:20:29;;;;;;;9.30;2.67;;;7.50;36.60;;;;;;5024666;28;20542;-77
2024/01/05 11:23:19;;;;;;;11.35;3.50;;;7.70;32.30;;;;;;4982885;28;20538;-79
2024/01/05 11:26:42;;;;;;;10.52;3.63;;;7.60;36.40;;;;;;5013218;28;20041;-79
2024/01/05 11:29:51;;;;;;;;;;;7.60;90.00;;;;;;5007628;28;20046;-80
2024/01/05 11:32:51;;;;;;;5.10;2.67;;;7.70;91.70;;;;;;5023429;28;19925;-78
2024/01/05 11:35:45;;;;;;;7.32;2.92;;;7.70;60.10;;;;;;5027819;28;20049;-79
2024/01/05 11:38:33;;;;;;;5.55;2.85;;;7.70;99.90;;;;;;5024381;28;20053;-80
2024/01/05 11:41:24;;;;;;;5.10;2.72;;;7.70;99.90;;;;;;5024884;28;20045;-79
2024/01/05 11:44:38;;;;;;;8.75;2.78;;;7.60;99.90;;;;;;5022596;28;20069;-80
2024/01/05 11:47:45;;;;;;;11.30;3.28;;;7.60;99.90;;;;;;5013701;28;20560;-80
2024/01/05 11:50:36;;;;;;;7.28;2.85;;;7.60;99.90;;;;;;5015902;28;20045;-80
2024/01/05 11:53:24;;;;;;;7.57;2.60;;;7.50;99.90;;;;;;5026852;28;20130;-78
2024/01/05 11:56:18;;;;;;;7.22;3.40;;;7.50;99.90;;;;;;5033297;28;20631;-78
2024/01/05 11:59:23;;;;;;;9.15;3.67;;;7.40;99.90;;;;;;5018159;28;20061;-78
2024/01/05 12:02:31;;;;;;;7.05;3.35;;;7.40;99.90;;;;;;5024130;28;20021;-78
2024/01/05 12:05:25;;;;;;;9.38;3.47;;;7.30;99.90;;;;;;5034008;28;20044;-79
2024/01/05 12:08:16;;;;;;;9.82;3.38;;;7.30;99.90;;;;;;5034049;28;20076;-80
2024/01/05 12:11:10;;;;;;;5.63;3.20;;;7.30;99.90;;;;;;5033027;28;20049;-76
2024/01/05 12:13:59;;;;;;;7.93;3.60;;;7.20;99.90;;;;;;5036145;28;20095;-80
2024/01/05 12:16:46;;;;;;;10.93;3.20;;;7.30;99.90;;;;;;5033264;28;20045;-77
2024/01/05 12:19:34;;;;;;;11.40;3.03;;;7.30;1.00;;;;;;5032117;28;20046;-78
2024/01/05 12:22:21;;;;;;;10.38;3.55;;;7.30;1.00;;;;;;5038036;28;20034;-79
2024/01/05 12:25:11;;;;;;;9.40;3.17;;;7.30;1.00;;;;;;5029852;28;20045;-78
2024/01/05 12:27:59;;;;;;;13.63;3.53;;;7.30;1.00;;;;;;5037210;28;20039;-78
2024/01/05 12:30:46;;;;;;;17.38;2.95;;;7.30;19.10;;;;;;5035777;28;20088;-79
2024/01/05 12:33:37;;;;;;;12.18;3.33;;;7.30;99.90;;;;;;5047348;28;20049;-77
2024/01/05 12:36:32;;;;;;;7.25;3.25;;;7.30;99.90;;;;;;5047036;28;20033;-79
2024/01/05 12:39:23;;;;;;;6.80;3.10;;;7.30;99.90;;;;;;5058007;28;20595;-78
2024/01/05 12:42:13;;;;;;;8.65;2.90;;;7.30;99.90;;;;;;5024834;28;20228;-79
2024/01/05 12:45:22;;;;;;;9.82;3.00;;;7.30;99.90;;;;;;5021996;28;20045;-79
2024/01/05 12:48:35;;;;;;;8.73;2.95;;;7.40;99.90;;;;;;5015800;28;20261;-79
2024/01/05 12:51:30;;;;;;;8.32;3.30;;;7.50;99.90;;;;;;5026731;28;20049;-79
2024/01/05 12:54:26;;;;;;;3.80;2.47;;;7.60;99.90;;;;;;5027865;28;20052;-79
2024/01/05 12:57:21;;;;;;;6.72;2.80;;;7.70;99.90;;;;;;5034273;28;20553;-80
2024/01/05 13:00:25;;;;;;;;;;;;;;;;;;;;;
2024/01/05 13:03:20;;;;;;;7.35;2.60;;;7.70;99.90;;;;;;5030146;28;20097;-77
2024/01/05 13:06:25;;;;;;;10.85;2.92;;;7.80;99.90;;;;;;5002947;28;20542;-79
2024/01/05 13:09:41;;;;;;;9.30;2.80;;;7.80;99.90;;;;;;5028265;28;20045;-79
2024/01/05 13:12:46;;;;;;;6.30;2.80;;;7.90;99.90;;;;;;5026741;28;20093;-79
2024/01/05 13:16:04;;;;;;;;;;;;;;;;;;;;;
2024/01/05 13:19:14;;;;;;;5.78;2.63;;;7.90;99.90;;;;;;5021428;28;20103;-79
2024/01/05 13:22:30;;;;;;;8.63;2.67;;;7.80;99.90;;;;;;5011994;28;20045;-81
2024/01/05 13:25:39;;;;;;;7.53;2.70;;;7.80;99.90;;;;;;5023248;28;20045;-79
2024/01/05 13:28:56;;;;;;;7.65;3.00;;;7.80;1.00;;;;;;5019541;28;20026;-80
2024/01/05 13:32:05;;;;;;;9.27;2.95;;;7.80;99.90;;;;;;5025187;28;20045;-80
2024/01/05 13:35:26;;;;;;;6.75;3.17;;;7.70;99.90;;;;;;5037206;28;20126;-77
2024/01/05 13:38:24;;;;;;;9.30;3.13;;;7.80;1.00;;;;;;5033062;28;20078;-79
2024/01/05 13:41:22;;;;;;;7.35;2.83;;;7.70;1.00;;;;;;5039017;28;20389;-79
2024/01/05 13:44:32;;;;;;;7.10;2.60;;;7.70;1.00;;;;;;5017420;28;20045;-80
2024/01/05 13:47:55;;;;;;;13.07;3.00;;;7.70;1.00;;;;;;5011707;28;20048;-80
2024/01/05 13:54:51;;;;;;;;;;;;;;;;;;;;;
2024/01/05 13:57:54;;;;;;;8.85;3.05;;;7.50;1.00;;;;;;5025049;28;20115;-79
2024/01/05 14:04:47;;;;;;;8.95;3.03;;;7.60;99.90;;;;;;5021709;28;20068;-81
2024/01/05 14:08:10;;;;;;;6.05;3.08;;;7.50;1.00;;;;;;5010718;28;20171;-82
2024/01/05 14:11:06;;;;;;;6.80;3.47;;;7.50;1.00;;;;;;5020780;28;20564;-82
2024/01/05 14:14:43;;;;;;;10.23;3.85;;;7.50;1.00;;;;;;5024916;28;20092;-80
2024/01/05 14:17:51;;;;;;;8.10;3.10;;;7.50;41.30;;;;;;5017701;28;20536;-82
2024/01/05 14:20:51;;;;;;;12.05;3.50;;;7.50;1.00;;;;;;5022291;28;20528;-80
2024/01/05 14:23:54;;;;;;;10.48;3.05;;;7.40;1.00;;;;;;5028075;28;20425;-80
2024/01/05 14:26:48;;;;;;;15.80;4.82;;;7.40;99.90;;;;;;5017242;28;20046;-79
2024/01/05 14:29:40;;;;;;;13.27;3.28;;;7.40;1.00;;;;;;5025224;28;20049;-77
2024/01/05 14:32:31;;;;;;;7.03;3.63;;;7.40;89.00;;;;;;5036881;28;20059;-78
2024/01/05 14:35:30;;;;;;;13.02;4.43;;;7.30;99.90;;;;;;5046032;28;20109;-79
2024/01/05 14:38:39;;;;;;;13.00;3.28;;;7.30;99.90;;;;;;5036533;28;20092;-77
2024/01/05 14:41:32;;;;;;;10.82;4.82;;;7.30;1.00;;;;;;5027196;28;20049;-77
2024/01/05 14:44:25;;;;;;;;;;;7.30;1.00;;;;;;5031347;28;20547;-78
2024/01/05 14:47:22;;;;;;;20.73;9.35;;;7.30;1.00;;;;;;5020488;28;19983;-79
2024/01/05 14:50:10;;;;;;;7.97;3.42;;;7.30;48.60;;;;;;5016808;28;20092;-78
2024/01/05 14:52:59;;;;;;;9.27;4.25;;;7.20;99.90;;;;;;5025295;28;20050;-79
2024/01/05 14:56:01;;;;;;;9.70;4.32;;;7.20;99.90;;;;;;5018024;28;20049;-78
2024/01/05 14:58:55;;;;;;;12.13;4.97;;;7.20;99.90;;;;;;5016209;28;20069;-78
2024/01/05 15:01:45;;;;;;;11.85;4.88;;;7.20;99.90;;;;;;5006415;28;20106;-78
2024/01/05 15:04:34;;;;;;;9.73;4.07;;;7.20;99.90;;;;;;5022563;28;20095;-77
2024/01/05 15:07:22;;;;;;;9.18;4.18;;;7.20;99.90;;;;;;5027352;28;20056;-79
2024/01/05 15:10:10;;;;;;;11.77;3.95;;;7.20;99.90;;;;;;5022665;28;20038;-80
2024/01/05 15:13:07;;;;;;;9.50;4.57;;;7.20;99.90;;;;;;5027252;28;20500;-79
2024/01/05 15:16:05;;;;;;;10.02;4.55;;;7.20;99.90;;;;;;5027401;28;20076;-79
2024/01/05 15:19:04;;;;;;;12.02;4.38;;;7.10;1.00;;;;;;5034643;28;20044;-78
2024/01/05 15:22:03;;;;;;;12.07;6.07;;;7.10;1.00;;;;;;5018374;28;20046;-79
2024/01/05 15:24:55;;;;;;;20.75;10.55;;;7.10;99.90;;;;;;5009583;28;20038;-81
2024/01/05 15:27:51;;;;;;;19.95;10.25;;;7.00;99.90;;;;;;5011400;28;20052;-79
2024/01/05 15:30:43;;;;;;;13.18;6.00;;;7.10;1.00;;;;;;5021265;28;20077;-80
2024/01/05 15:33:33;;;;;;;13.70;5.30;;;7.10;99.90;;;;;;5023402;28;20537;-79
2024/01/05 15:36:38;;;;;;;10.63;4.18;;;7.00;1.00;;;;;;5034066;28;20095;-78
2024/01/05 15:39:30;;;;;;;12.48;4.20;;;7.00;1.00;;;;;;5033320;28;20049;-79
2024/01/05 15:42:18;;;;;;;8.50;4.25;;;6.90;1.00;;;;;;5024673;28;20045;-78
2024/01/05 15:45:06;;;;;;;12.80;5.75;;;7.00;99.90;;;;;;5023936;28;20117;-80
2024/01/05 15:47:53;;;;;;;11.77;5.63;;;7.00;99.90;;;;;;5026207;28;21104;-80